Time;durP1;ratioP1;P1;durP2;ratioP2;P2;SDS_P1;SDS_P2;PMS_P1;PMS_P2;Temp;Humidity;BMP_temperature;BMP_pressure;BME280_temperature;BME280_humidity;BME280_pressure;Samples;Min_cycle;Max_cycle;Signal;HPM_P1;HPM_P2
2023/08/07 00:00:28;;;;;;;7.28;2.92;;;;;;;13.62;100.00;101139.00;4990290;28;20508;-69
2023/08/07 00:02:54;;;;;;;10.02;3.47;;;;;;;13.60;100.00;101143.50;4973695;28;20077;-69
2023/08/07 00:05:21;;;;;;;8.50;2.78;;;;;;;13.64;100.00;101126.63;4990947;28;20544;-69
2023/08/07 00:07:48;;;;;;;9.05;3.22;;;;;;;13.56;100.00;101123.47;4992601;28;20054;-69
2023/08/07 00:10:15;;;;;;;8.48;3.55;;;;;;;13.54;100.00;101131.44;4992663;28;20157;-69
2023/08/07 00:12:42;;;;;;;7.85;2.65;;;;;;;13.51;100.00;101120.19;4992413;28;20401;-69
2023/08/07 00:15:11;;;;;;;8.40;3.10;;;;;;;13.67;100.00;101127.34;4992634;28;20047;-69
2023/08/07 00:17:37;;;;;;;9.60;2.80;;;;;;;13.56;100.00;101116.44;4992425;28;20042;-68
2023/08/07 00:20:05;;;;;;;8.68;2.92;;;;;;;13.57;100.00;101127.81;4992283;28;20101;-69
2023/08/07 00:22:32;;;;;;;7.63;2.90;;;;;;;13.50;100.00;101127.22;4992374;28;20057;-69
2023/08/07 00:24:58;;;;;;;7.30;3.25;;;;;;;13.55;100.00;101127.88;4992368;28;20065;-69
2023/08/07 00:27:25;;;;;;;8.10;2.75;;;;;;;13.65;100.00;101126.56;4980599;28;20374;-68
2023/08/07 00:29:52;;;;;;;6.30;2.22;;;;;;;13.88;100.00;101114.13;4991946;28;20050;-69
2023/08/07 00:32:18;;;;;;;6.28;2.20;;;;;;;14.00;100.00;101116.22;4992052;28;20061;-69
2023/08/07 00:34:45;;;;;;;7.43;2.58;;;;;;;13.93;100.00;101116.56;4991666;28;20046;-69
2023/08/07 00:37:12;;;;;;;7.97;2.70;;;;;;;13.85;100.00;101114.28;4992560;28;20317;-69
2023/08/07 00:39:38;;;;;;;6.82;2.40;;;;;;;13.75;100.00;101113.84;4991849;28;20057;-69
2023/08/07 00:42:05;;;;;;;7.35;2.85;;;;;;;13.65;100.00;101113.41;4991160;28;20058;-69
2023/08/07 00:44:32;;;;;;;8.05;2.75;;;;;;;13.82;100.00;101112.63;4991578;28;20051;-69
2023/08/07 00:46:59;;;;;;;9.00;3.03;;;;;;;13.68;100.00;101107.16;4992078;28;20054;-69
2023/08/07 00:49:26;;;;;;;8.23;3.03;;;;;;;13.71;100.00;101100.91;4989122;28;20137;-69
2023/08/07 00:51:54;;;;;;;7.60;2.95;;;;;;;13.75;100.00;101105.09;4991227;28;20050;-69
2023/08/07 00:54:21;;;;;;;8.10;2.70;;;;;;;13.76;100.00;101096.31;4971696;28;20042;-69
2023/08/07 00:56:49;;;;;;;10.15;2.70;;;;;;;13.70;100.00;101097.41;4988826;28;20519;-69
2023/08/07 00:59:15;;;;;;;6.53;2.88;;;;;;;13.65;100.00;101091.50;4979509;28;20062;-69
2023/08/07 01:01:42;;;;;;;8.55;2.70;;;;;;;13.57;100.00;101094.47;4991360;28;20054;-69
2023/08/07 01:04:09;;;;;;;9.82;2.83;;;;;;;13.55;100.00;101088.44;4991376;28;20058;-70
2023/08/07 01:06:36;;;;;;;9.07;3.40;;;;;;;13.48;100.00;101095.72;4991399;28;20511;-69
2023/08/07 01:09:03;;;;;;;9.02;3.08;;;;;;;13.53;100.00;101089.41;4971110;28;20734;-69
2023/08/07 01:11:40;;;;;;;6.97;2.50;;;;;;;13.47;100.00;101093.16;4989496;28;20042;-69
2023/08/07 01:14:16;;;;;;;9.23;3.00;;;;;;;13.44;100.00;101091.53;4990544;28;20053;-69
2023/08/07 01:17:04;;;;;;;7.13;2.65;;;;;;;13.50;100.00;101093.03;4991187;28;20488;-69
2023/08/07 01:19:31;;;;;;;9.77;2.95;;;;;;;13.27;100.00;101086.97;4977419;28;20054;-69
2023/08/07 01:22:14;;;;;;;8.40;3.20;;;;;;;13.24;100.00;101086.25;4991205;28;20057;-69
2023/08/07 01:24:46;;;;;;;9.52;2.80;;;;;;;13.32;100.00;101072.81;4978518;28;20049;-69
2023/08/07 01:27:18;;;;;;;8.70;3.08;;;;;;;13.19;100.00;101075.06;4990582;28;20077;-69
2023/08/07 01:30:07;;;;;;;6.93;2.90;;;;;;;13.21;100.00;101076.72;4990576;28;20056;-69
2023/08/07 01:33:01;;;;;;;8.35;2.90;;;;;;;13.16;100.00;101062.91;4990737;28;20042;-69
2023/08/07 01:35:33;;;;;;;10.35;3.10;;;;;;;13.21;100.00;101066.22;4991151;28;20113;-69
2023/08/07 01:38:01;;;;;;;8.80;3.67;;;;;;;13.16;100.00;101057.66;4991028;28;20050;-69
2023/08/07 01:40:28;;;;;;;8.70;3.20;;;;;;;13.06;100.00;101054.56;4991220;28;20050;-69
2023/08/07 01:42:55;;;;;;;9.18;3.47;;;;;;;13.03;100.00;101059.09;4990561;28;20093;-69
2023/08/07 01:45:26;;;;;;;7.18;2.75;;;;;;;13.39;100.00;101058.47;4990900;28;20247;-69
2023/08/07 01:47:53;;;;;;;8.18;2.55;;;;;;;13.45;100.00;101056.41;4990353;28;20065;-69
2023/08/07 01:50:22;;;;;;;9.07;3.15;;;;;;;13.50;100.00;101058.00;4971456;28;20053;-69
2023/08/07 01:52:49;;;;;;;8.57;3.10;;;;;;;13.42;100.00;101051.31;4988933;28;20050;-69
2023/08/07 01:55:17;;;;;;;6.22;2.50;;;;;;;13.32;100.00;101047.38;4990570;28;20050;-69
2023/08/07 01:57:44;;;;;;;8.57;2.95;;;;;;;13.14;100.00;101043.72;4990307;28;20457;-69
2023/08/07 02:00:11;;;;;;;8.20;2.60;;;;;;;13.08;100.00;101036.09;4989543;28;20143;-68
2023/08/07 02:02:38;;;;;;;9.90;3.40;;;;;;;13.20;100.00;101039.97;4989481;28;20073;-69
2023/08/07 02:05:06;;;;;;;6.88;2.53;;;;;;;13.16;100.00;101039.25;4990552;28;20096;-69
2023/08/07 02:07:32;;;;;;;7.70;2.90;;;;;;;13.20;100.00;101034.72;4990560;28;20049;-69
2023/08/07 02:09:59;;;;;;;6.28;2.45;;;;;;;13.17;100.00;101042.72;4989922;28;20047;-69
2023/08/07 02:12:26;;;;;;;9.15;2.95;;;;;;;13.24;100.00;101028.41;4986786;28;20053;-69
2023/08/07 02:14:53;;;;;;;5.93;2.25;;;;;;;13.23;100.00;101034.59;4990366;28;20058;-69
2023/08/07 02:17:24;;;;;;;7.95;2.60;;;;;;;13.07;100.00;101022.09;4990928;28;20047;-69
2023/08/07 02:19:51;;;;;;;9.43;2.60;;;;;;;13.14;100.00;101025.34;4990030;28;20054;-69
2023/08/07 02:22:17;;;;;;;6.90;2.30;;;;;;;13.21;100.00;101013.63;4981951;28;20051;-69
2023/08/07 02:24:44;;;;;;;9.23;3.15;;;;;;;13.19;100.00;101015.47;4988749;28;20050;-69
2023/08/07 02:27:11;;;;;;;7.22;2.53;;;;;;;13.21;100.00;101015.38;4989915;28;20043;-69
2023/08/07 02:29:37;;;;;;;6.88;2.70;;;;;;;13.37;100.00;101018.22;4990146;28;20054;-69
2023/08/07 02:32:05;;;;;;;8.25;3.25;;;;;;;13.33;100.00;101024.53;4989985;28;20061;-69
2023/08/07 02:34:32;;;;;;;9.98;3.00;;;;;;;13.07;100.00;100997.59;4971522;28;20046;-69
2023/08/07 02:36:59;;;;;;;8.52;2.70;;;;;;;13.04;100.00;101013.50;4987360;28;20058;-69
2023/08/07 02:39:25;;;;;;;7.45;2.65;;;;;;;13.13;100.00;101007.00;4990916;28;20472;-69
2023/08/07 02:41:52;;;;;;;7.85;3.00;;;;;;;12.80;100.00;101015.41;4989525;28;20051;-69
2023/08/07 02:44:19;;;;;;;10.27;3.03;;;;;;;12.70;100.00;101017.56;4990264;28;20046;-69
2023/08/07 02:46:46;;;;;;;9.60;2.83;;;;;;;12.61;100.00;101013.56;4990798;28;20076;-69
2023/08/07 02:49:13;;;;;;;8.93;3.17;;;;;;;12.53;100.00;101011.22;4990132;28;20058;-69
2023/08/07 02:51:40;;;;;;;9.07;3.00;;;;;;;12.68;100.00;101009.75;4987530;28;20050;-69
2023/08/07 02:54:07;;;;;;;8.13;2.83;;;;;;;12.56;100.00;100998.91;4990025;28;20226;-69
2023/08/07 02:56:33;;;;;;;8.05;2.63;;;;;;;12.52;100.00;101000.81;4970705;28;20055;-69
2023/08/07 02:59:01;;;;;;;6.95;2.67;;;;;;;12.48;100.00;101007.09;4988864;28;20057;-69
2023/08/07 03:01:28;;;;;;;8.55;3.22;;;;;;;12.33;100.00;101001.56;4990050;28;20050;-69
2023/08/07 03:03:55;;;;;;;7.10;2.70;;;;;;;12.34;100.00;101000.66;4972155;28;20050;-69
2023/08/07 03:06:22;;;;;;;10.95;3.15;;;;;;;12.24;100.00;100991.44;4990176;28;20050;-69
2023/08/07 03:08:49;;;;;;;8.35;3.08;;;;;;;12.38;100.00;100997.88;4989996;28;20058;-69
2023/08/07 03:11:16;;;;;;;8.10;3.20;;;;;;;12.46;100.00;100994.03;4971911;28;20050;-69
2023/08/07 03:13:44;;;;;;;8.73;3.03;;;;;;;12.46;100.00;100987.91;4988885;28;20519;-69
2023/08/07 03:16:11;;;;;;;7.85;2.95;;;;;;;12.37;100.00;100981.28;4976451;28;20054;-69
2023/08/07 03:18:37;;;;;;;6.90;2.33;;;;;;;12.61;100.00;100989.06;4989203;28;20047;-69
2023/08/07 03:21:04;;;;;;;8.57;2.85;;;;;;;12.71;100.00;100985.13;4992190;28;20047;-69
2023/08/07 03:23:31;;;;;;;8.70;2.95;;;;;;;12.76;100.00;100983.16;4993288;28;20050;-69
2023/08/07 03:26:06;;;;;;;9.18;3.45;;;;;;;12.85;100.00;100982.75;4992633;28;20133;-69
2023/08/07 03:28:36;;;;;;;8.77;3.08;;;;;;;12.74;100.00;100969.22;4991719;28;20042;-69
2023/08/07 03:31:03;;;;;;;7.57;2.72;;;;;;;12.81;100.00;100965.41;4992842;28;20050;-69
2023/08/07 03:33:30;;;;;;;8.68;2.97;;;;;;;12.67;100.00;100981.75;4992639;28;20097;-69
2023/08/07 03:35:56;;;;;;;8.35;3.00;;;;;;;12.68;100.00;100969.50;4993362;28;20050;-69
2023/08/07 03:38:23;;;;;;;7.43;2.78;;;;;;;12.85;100.00;100979.28;4993010;28;20046;-69
2023/08/07 03:40:50;;;;;;;6.65;2.40;;;;;;;12.96;100.00;100965.66;4992766;28;20050;-69
2023/08/07 03:43:16;;;;;;;6.93;2.33;;;;;;;13.07;100.00;100974.78;4992448;28;20392;-69
2023/08/07 03:45:43;;;;;;;9.68;2.80;;;;;;;13.07;100.00;100977.41;4990331;28;20054;-69
2023/08/07 03:48:10;;;;;;;7.22;2.55;;;;;;;13.04;100.00;100974.06;4991307;28;20504;-69
2023/08/07 03:50:37;;;;;;;6.60;2.40;;;;;;;12.86;100.00;100967.84;4993049;28;20058;-69
2023/08/07 03:53:07;;;;;;;9.00;2.97;;;;;;;12.86;100.00;100978.38;4991312;28;20488;-69
2023/08/07 03:55:34;;;;;;;7.32;2.80;;;;;;;12.73;100.00;100978.03;4992816;28;20508;-69
2023/08/07 03:58:02;;;;;;;7.63;2.42;;;;;;;12.48;100.00;100955.44;4993009;28;20046;-69
2023/08/07 04:00:29;;;;;;;8.40;2.45;;;;;;;12.65;100.00;100965.22;4992897;28;20489;-69
2023/08/07 04:02:55;;;;;;;7.43;2.40;;;;;;;12.70;100.00;100968.50;4992288;28;20054;-69
2023/08/07 04:05:22;;;;;;;7.28;2.60;;;;;;;12.70;100.00;100965.88;4992623;28;20058;-69
2023/08/07 04:07:49;;;;;;;7.15;2.72;;;;;;;12.70;100.00;100968.50;4992530;28;20060;-69
2023/08/07 04:10:16;;;;;;;7.47;2.80;;;;;;;12.60;100.00;100961.09;4992493;28;20539;-69
2023/08/07 04:12:42;;;;;;;7.93;2.70;;;;;;;12.58;100.00;100966.41;4989326;28;20216;-69
2023/08/07 04:15:09;;;;;;;7.60;2.67;;;;;;;12.63;100.00;100959.19;4992881;28;20054;-69
2023/08/07 04:17:36;;;;;;;7.30;2.72;;;;;;;12.66;100.00;100963.44;4992037;28;20046;-69
2023/08/07 04:20:04;;;;;;;7.90;2.70;;;;;;;12.68;100.00;100953.75;4991833;28;20481;-69
2023/08/07 04:22:30;;;;;;;7.15;2.53;;;;;;;12.64;100.00;100962.66;4991801;28;20054;-69
2023/08/07 04:24:57;;;;;;;7.05;2.67;;;;;;;12.48;100.00;100952.81;4992299;28;20061;-69
2023/08/07 04:27:24;;;;;;;6.55;2.42;;;;;;;12.61;100.00;100954.94;4990525;28;20286;-69
2023/08/07 04:29:50;;;;;;;6.93;2.55;;;;;;;12.85;100.00;100951.22;4977285;28;20050;-69
2023/08/07 04:32:17;;;;;;;8.43;3.00;;;;;;;12.87;100.00;100948.53;4990950;28;20476;-69
2023/08/07 04:34:44;;;;;;;5.85;2.30;;;;;;;12.82;100.00;100945.25;4990185;28;20057;-69
2023/08/07 04:37:10;;;;;;;6.28;2.28;;;;;;;12.71;100.00;100948.34;4992218;28;20065;-69
2023/08/07 04:39:37;;;;;;;7.28;2.60;;;;;;;12.65;100.00;100946.81;4992343;28;20065;-69
2023/08/07 04:42:04;;;;;;;7.80;2.75;;;;;;;12.67;100.00;100955.50;4990760;28;20069;-69
2023/08/07 04:44:31;;;;;;;5.85;2.30;;;;;;;12.80;100.00;100949.72;4991631;28;20057;-69
2023/08/07 04:46:57;;;;;;;6.95;2.50;;;;;;;12.96;100.00;100963.03;4991039;28;20358;-69
2023/08/07 04:49:24;;;;;;;6.93;2.50;;;;;;;13.02;100.00;100955.75;4983751;28;20109;-69
2023/08/07 04:51:51;;;;;;;7.07;2.50;;;;;;;13.09;100.00;100956.31;4973339;28;20432;-69
2023/08/07 04:54:18;;;;;;;5.78;1.80;;;;;;;13.29;100.00;100961.53;4991240;28;20046;-70
2023/08/07 04:56:44;;;;;;;9.63;2.25;;;;;;;13.28;100.00;100954.56;4991382;28;20065;-70
2023/08/07 04:59:11;;;;;;;8.88;2.25;;;;;;;13.32;100.00;100952.69;4991248;28;20062;-69
2023/08/07 05:01:38;;;;;;;6.18;2.05;;;;;;;13.43;100.00;100957.47;4991064;28;20082;-69
2023/08/07 05:04:05;;;;;;;5.75;1.90;;;;;;;13.50;100.00;100958.88;4986035;28;20048;-69
2023/08/07 05:06:32;;;;;;;5.47;1.85;;;;;;;13.61;100.00;100956.59;4978133;28;20055;-69
2023/08/07 05:08:58;;;;;;;5.65;1.80;;;;;;;13.64;100.00;100959.09;4987075;28;20133;-69
2023/08/07 05:11:26;;;;;;;5.68;1.95;;;;;;;13.58;100.00;100962.03;4981573;28;20046;-69
2023/08/07 05:13:53;;;;;;;6.10;2.20;;;;;;;13.48;100.00;100958.09;4973992;28;20515;-69
2023/08/07 05:16:20;;;;;;;5.40;2.00;;;;;;;13.45;100.00;100953.81;4991436;28;20058;-69
2023/08/07 05:18:46;;;;;;;8.32;2.85;;;;;;;13.29;100.00;100953.63;4990707;28;20054;-69
2023/08/07 05:21:16;;;;;;;6.68;2.30;;;;;;;13.23;100.00;100951.31;4990206;28;20101;-69
2023/08/07 05:23:43;;;;;;;7.25;2.70;;;;;;;13.21;100.00;100950.53;4990769;28;20061;-69
2023/08/07 05:26:09;;;;;;;8.52;3.30;;;;;;;12.95;100.00;100949.03;4991303;28;20050;-69
2023/08/07 05:28:36;;;;;;;7.90;2.83;;;;;;;12.93;100.00;100943.00;4991276;28;20495;-69
2023/08/07 05:31:03;;;;;;;9.98;3.15;;;;;;;13.18;100.00;100947.19;4985333;28;20058;-69
2023/08/07 05:33:29;;;;;;;6.05;2.35;;;;;;;13.42;100.00;100935.56;4991481;28;20104;-69
2023/08/07 05:35:56;;;;;;;5.28;2.03;;;;;;;13.53;100.00;100942.97;4991442;28;20058;-69
2023/08/07 05:38:22;;;;;;;5.93;2.05;;;;;;;13.52;100.00;100935.97;4991057;28;20421;-69
2023/08/07 05:40:49;;;;;;;6.60;2.45;;;;;;;13.71;100.00;100935.13;4976736;28;20424;-69
2023/08/07 05:43:17;;;;;;;5.82;2.28;;;;;;;13.80;100.00;100930.28;4987793;28;20042;-69
2023/08/07 05:45:46;;;;;;;6.13;2.25;;;;;;;13.80;100.00;100934.69;4989624;28;20058;-69
2023/08/07 05:48:12;;;;;;;7.88;2.78;;;;;;;13.73;100.00;100928.84;4990373;28;20046;-69
2023/08/07 05:50:39;;;;;;;10.93;2.80;;;;;;;13.81;100.00;100925.84;4990954;28;20051;-69
2023/08/07 05:53:06;;;;;;;8.32;2.47;;;;;;;13.81;100.00;100915.31;4990626;28;20050;-69
2023/08/07 05:55:33;;;;;;;7.45;2.80;;;;;;;13.72;100.00;100924.50;4990933;28;20052;-69
2023/08/07 05:58:00;;;;;;;9.52;3.08;;;;;;;13.68;100.00;100926.44;4989978;28;20480;-70
2023/08/07 06:00:28;;;;;;;7.80;2.38;;;;;;;13.61;100.00;100916.28;4985652;28;20058;-69
2023/08/07 06:02:55;;;;;;;7.55;2.75;;;;;;;13.57;100.00;100912.94;4983483;28;20065;-69
2023/08/07 06:05:21;;;;;;;11.13;2.47;;;;;;;13.64;100.00;100913.53;4990556;28;20060;-69
2023/08/07 06:07:48;;;;;;;8.95;2.50;;;;;;;13.74;100.00;100913.91;4990049;28;20059;-69
2023/08/07 06:10:15;;;;;;;6.75;2.40;;;;;;;13.82;100.00;100903.88;4989691;28;20054;-69
2023/08/07 06:12:41;;;;;;;6.80;2.58;;;;;;;13.95;100.00;100909.41;4984685;28;20492;-69
2023/08/07 06:15:09;;;;;;;8.57;3.08;;;;;;;13.70;100.00;100913.22;4982346;28;20060;-69
2023/08/07 06:17:35;;;;;;;6.50;2.40;;;;;;;14.05;100.00;100918.56;4989118;28;20045;-69
2023/08/07 06:20:04;;;;;;;9.82;2.63;;;;;;;14.23;100.00;100922.88;4989283;28;20456;-69
2023/08/07 06:22:32;;;;;;;7.10;2.53;;;;;;;14.16;100.00;100910.97;4988565;28;20086;-69
2023/08/07 06:24:59;;;;;;;6.22;2.17;;;;;;;14.48;100.00;100911.13;4989497;28;20516;-69
2023/08/07 06:27:26;;;;;;;9.82;2.33;;;;;;;14.71;100.00;100911.75;4988480;28;20082;-69
2023/08/07 06:29:52;;;;;;;8.27;2.83;;;;;;;14.65;100.00;100902.38;4985386;28;20061;-69
2023/08/07 06:32:19;;;;;;;7.88;2.90;;;;;;;14.91;100.00;100918.59;4987377;28;20062;-69
2023/08/07 06:34:46;;;;;;;7.60;2.33;;;;;;;14.84;100.00;100915.47;4988579;28;20043;-69
2023/08/07 06:37:13;;;;;;;8.60;2.70;;;;;;;14.48;100.00;100905.84;4990278;28;20549;-69
2023/08/07 06:39:39;;;;;;;8.23;2.63;;;;;;;14.55;100.00;100907.25;4990360;28;20054;-69
2023/08/07 06:42:06;;;;;;;7.13;2.25;;;;;;;14.99;100.00;100913.78;4986832;28;20408;-69
2023/08/07 06:44:33;;;;;;;6.90;2.45;;;;;;;15.12;100.00;100904.31;4987946;28;20477;-69
2023/08/07 06:47:00;;;;;;;7.95;2.60;;;;;;;15.40;100.00;100909.84;4987280;28;20417;-69
2023/08/07 06:49:26;;;;;;;5.97;2.25;;;;;;;15.57;100.00;100912.41;4989272;28;20050;-69
2023/08/07 06:51:53;;;;;;;6.30;2.22;;;;;;;15.83;100.00;100910.09;4983079;28;20054;-69
2023/08/07 06:54:20;;;;;;;6.68;2.20;;;;;;;15.90;100.00;100914.09;4990865;28;20480;-69
2023/08/07 06:56:47;;;;;;;7.07;2.53;;;;;;;16.71;100.00;100913.75;4993622;28;20058;-69
2023/08/07 06:59:14;;;;;;;6.10;1.95;;;;;;;17.31;100.00;100923.34;4992445;28;20046;-70
2023/08/07 07:01:40;;;;;;;6.55;2.13;;;;;;;16.93;100.00;100925.72;4991641;28;20046;-69
2023/08/07 07:04:07;;;;;;;6.75;2.33;;;;;;;16.79;100.00;100932.66;4993178;28;20095;-69
2023/08/07 07:06:34;;;;;;;6.32;2.25;;;;;;;16.50;100.00;100921.19;4992392;28;20046;-69
2023/08/07 07:09:00;;;;;;;6.65;2.35;;;;;;;16.12;100.00;100927.78;4992063;28;20050;-69
2023/08/07 07:11:27;;;;;;;8.70;2.67;;;;;;;15.53;100.00;100921.44;4991768;28;20046;-69
2023/08/07 07:13:54;;;;;;;6.93;2.40;;;;;;;15.34;100.00;100914.53;4991554;28;20050;-70
2023/08/07 07:16:21;;;;;;;8.25;2.30;;;;;;;15.62;100.00;100914.81;4992596;28;20097;-70
2023/08/07 07:18:50;;;;;;;6.32;1.95;;;;;;;15.75;100.00;100915.84;4973596;28;20363;-70
2023/08/07 07:21:18;;;;;;;9.57;2.47;;;;;;;15.75;100.00;100907.91;4991584;28;20046;-69
2023/08/07 07:23:44;;;;;;;8.90;2.60;;;;;;;15.73;100.00;100891.28;4991653;28;20055;-69
2023/08/07 07:26:11;;;;;;;7.38;2.70;;;;;;;15.97;100.00;100891.72;4979506;28;20473;-71
2023/08/07 07:28:38;;;;;;;7.15;2.40;;;;;;;16.61;100.00;100902.91;4991550;28;20050;-69
2023/08/07 07:31:05;;;;;;;9.80;2.90;;;;;;;16.96;100.00;100901.72;4991355;28;20042;-69
2023/08/07 07:33:31;;;;;;;7.95;2.70;;;;;;;16.94;100.00;100893.03;4990914;28;20476;-69
2023/08/07 07:35:58;;;;;;;6.03;2.13;;;;;;;17.13;100.00;100906.81;4990059;28;20053;-69
2023/08/07 07:38:26;;;;;;;6.25;2.03;;;;;;;17.37;100.00;100912.38;4991732;28;20587;-70
2023/08/07 07:40:56;;;;;;;8.40;2.70;;;;;;;17.57;100.00;100908.44;4990853;28;20069;-69
2023/08/07 07:43:23;;;;;;;6.07;2.15;;;;;;;18.21;100.00;100910.50;4989709;28;20118;-70
2023/08/07 07:45:50;;;;;;;6.15;2.28;;;;;;;18.26;100.00;100907.56;4989950;28;20377;-69
2023/08/07 07:48:16;;;;;;;6.80;2.15;;;;;;;18.78;100.00;100914.59;4989223;28;20403;-70
2023/08/07 07:50:43;;;;;;;6.68;2.13;;;;;;;18.51;100.00;100902.28;4990457;28;20050;-69
2023/08/07 07:53:10;;;;;;;6.00;1.73;;;;;;;19.13;100.00;100898.03;4991194;28;20138;-69
2023/08/07 07:55:37;;;;;;;5.43;1.73;;;;;;;19.83;100.00;100902.75;4986831;28;20058;-70
2023/08/07 07:58:06;;;;;;;4.72;1.50;;;;;;;20.30;100.00;100908.94;4990348;28;20129;-70
2023/08/07 08:00:33;;;;;;;6.93;2.10;;;;;;;20.12;100.00;100901.53;4976296;28;20046;-70
2023/08/07 08:02:59;;;;;;;6.93;1.67;;;;;;;20.87;100.00;100901.09;4990920;28;20465;-70
2023/08/07 08:05:26;;;;;;;6.20;1.70;;;;;;;20.86;100.00;100886.94;4989888;28;20116;-70
2023/08/07 08:07:53;;;;;;;5.68;1.55;;;;;;;21.05;100.00;100904.97;4990752;28;20133;-70
2023/08/07 08:10:19;;;;;;;4.05;1.45;;;;;;;21.10;100.00;100896.59;4991056;28;20054;-70
2023/08/07 08:12:46;;;;;;;5.40;1.67;;;;;;;21.17;100.00;100900.47;4987606;28;20048;-70
2023/08/07 08:15:13;;;;;;;5.75;1.40;;;;;;;21.29;100.00;100895.97;4990495;28;20050;-70
2023/08/07 08:17:40;;;;;;;5.50;1.60;;;;;;;21.26;100.00;100896.22;4989389;28;20141;-70
2023/08/07 08:20:07;;;;;;;2.47;1.10;;;;;;;21.91;100.00;100888.34;4988032;28;20054;-70
2023/08/07 08:22:34;;;;;;;6.07;1.48;;;;;;;21.09;100.00;100891.41;4988662;28;20046;-70
2023/08/07 08:25:01;;;;;;;4.70;1.58;;;;;;;21.39;100.00;100890.78;4969606;28;20402;-68
2023/08/07 08:27:28;;;;;;;5.13;1.67;;;;;;;21.68;100.00;100898.25;4988597;28;20057;-68
2023/08/07 08:29:55;;;;;;;4.55;1.40;;;;;;;21.88;100.00;100893.94;4986682;28;20043;-68
2023/08/07 08:32:22;;;;;;;3.92;1.30;;;;;;;21.71;100.00;100888.19;4985460;28;20615;-68
2023/08/07 08:34:50;;;;;;;5.25;1.45;;;;;;;22.13;100.00;100888.25;4987832;28;20165;-68
2023/08/07 08:37:18;;;;;;;4.75;1.63;;;;;;;22.31;100.00;100880.53;4970749;28;20052;-68
2023/08/07 08:39:45;;;;;;;6.13;1.85;;;;;;;22.22;100.00;100881.25;4988264;28;20050;-68
2023/08/07 08:42:14;;;;;;;4.97;1.60;;;;;;;22.04;100.00;100886.34;4986191;28;20054;-68
2023/08/07 08:44:46;;;;;;;4.07;1.40;;;;;;;21.59;100.00;100890.03;4987697;28;20068;-68
2023/08/07 08:47:14;;;;;;;5.67;1.60;;;;;;;21.69;100.00;100868.81;4988263;28;20523;-68
2023/08/07 08:49:49;;;;;;;7.07;1.60;;;;;;;22.11;100.00;100878.66;4986560;28;20050;-68
2023/08/07 08:52:16;;;;;;;3.90;1.50;;;;;;;22.04;100.00;100874.84;4987730;28;20073;-68
2023/08/07 08:54:44;;;;;;;4.25;1.50;;;;;;;21.88;100.00;100876.09;4978235;28;20436;-68
2023/08/07 08:57:12;;;;;;;4.45;1.27;;;;;;;22.08;100.00;100870.91;4986769;28;20154;-68
2023/08/07 08:59:41;;;;;;;4.30;1.50;;;;;;;21.89;95.98;100864.47;4990668;28;20396;-68
2023/08/07 09:02:08;;;;;;;4.88;1.40;;;;;;;21.58;100.00;100872.34;4988855;28;20053;-68
2023/08/07 09:04:35;;;;;;;4.00;1.30;;;;;;;21.32;95.37;100866.44;4990036;28;20058;-68
2023/08/07 09:07:03;;;;;;;4.88;1.40;;;;;;;21.61;100.00;100865.91;4990033;28;20058;-70
2023/08/07 09:09:30;;;;;;;3.78;1.38;;;;;;;21.38;97.67;100854.44;4989049;28;20061;-70
2023/08/07 09:11:58;;;;;;;5.30;1.60;;;;;;;21.37;100.00;100866.06;4987570;28;20690;-71
2023/08/07 09:14:31;;;;;;;7.35;2.00;;;;;;;21.72;100.00;100857.03;4972187;28;20054;-69
2023/08/07 09:17:00;;;;;;;5.30;1.70;;;;;;;21.75;100.00;100860.28;4988820;28;20062;-69
2023/08/07 09:19:28;;;;;;;8.02;1.80;;;;;;;21.55;100.00;100847.78;4970502;28;20054;-69
2023/08/07 09:21:55;;;;;;;6.13;1.70;;;;;;;21.60;100.00;100851.75;4989061;28;20526;-69
2023/08/07 09:24:22;;;;;;;8.98;2.00;;;;;;;21.93;100.00;100841.06;4989833;28;20054;-69
2023/08/07 09:26:51;;;;;;;4.25;1.63;;;;;;;22.05;100.00;100836.53;4990367;28;20408;-69
2023/08/07 09:29:20;;;;;;;4.38;1.50;;;;;;;22.40;100.00;100849.56;4980682;28;20043;-69
2023/08/07 09:31:47;;;;;;;4.68;1.60;;;;;;;22.24;100.00;100842.00;4988552;28;20108;-69
2023/08/07 09:34:17;;;;;;;5.18;1.70;;;;;;;21.79;100.00;100836.91;4989387;28;20412;-69
2023/08/07 09:36:44;;;;;;;5.30;1.60;;;;;;;22.18;100.00;100834.50;4976114;28;20054;-69
2023/08/07 09:39:11;;;;;;;4.97;1.45;;;;;;;22.11;100.00;100828.84;4989672;28;20113;-69
2023/08/07 09:41:37;;;;;;;4.55;1.67;;;;;;;21.84;100.00;100826.69;4970055;28;20054;-69
2023/08/07 09:44:10;;;;;;;5.28;1.40;;;;;;;22.03;100.00;100843.81;4989423;28;20457;-69
2023/08/07 09:46:44;;;;;;;4.07;1.45;;;;;;;21.69;100.00;100825.31;4970076;28;20528;-69
2023/08/07 09:49:11;;;;;;;4.70;1.60;;;;;;;21.45;100.00;100831.66;4970448;28;20058;-69
2023/08/07 09:51:46;;;;;;;5.15;1.55;;;;;;;21.77;100.00;100838.84;4984238;28;20136;-69
2023/08/07 09:54:13;;;;;;;4.88;1.55;;;;;;;21.51;100.00;100833.00;4988396;28;20058;-69
2023/08/07 09:56:40;;;;;;;5.47;1.77;;;;;;;20.66;100.00;100839.75;4989247;28;20137;-69
2023/08/07 09:59:08;;;;;;;5.30;1.52;;;;;;;21.50;100.00;100842.81;4988558;28;20510;-69
2023/08/07 10:01:38;;;;;;;4.25;1.42;;;;;;;21.54;100.00;100816.78;4988363;28;20459;-69
2023/08/07 10:04:14;;;;;;;4.65;1.65;;;;;;;21.58;100.00;100844.84;4984723;28;20516;-69
2023/08/07 10:06:43;;;;;;;5.15;1.65;;;;;;;22.16;100.00;100831.13;4989639;28;20069;-69
2023/08/07 10:09:10;;;;;;;4.05;1.30;;;;;;;21.79;100.00;100828.91;4976809;28;20046;-69
2023/08/07 10:11:39;;;;;;;5.65;1.73;;;;;;;22.60;100.00;100826.50;4988067;28;20476;-69
2023/08/07 10:14:06;;;;;;;8.52;1.58;;;;;;;22.61;100.00;100814.84;4989535;28;20492;-69
2023/08/07 10:16:39;;;;;;;6.68;1.50;;;;;;;23.08;100.00;100817.81;4989559;28;20840;-69
2023/08/07 10:19:06;;;;;;;5.15;1.60;;;;;;;22.94;100.00;100819.03;4988910;28;20042;-69
2023/08/07 10:21:36;;;;;;;3.55;1.30;;;;;;;22.97;100.00;100817.09;4987201;28;20487;-69
2023/08/07 10:24:08;;;;;;;4.90;1.60;;;;;;;22.92;100.00;100818.31;4979831;28;20519;-69
2023/08/07 10:26:39;;;;;;;6.90;1.60;;;;;;;22.42;100.00;100825.44;4989489;28;20458;-69
2023/08/07 10:29:10;;;;;;;5.70;1.77;;;;;;;22.25;100.00;100816.16;4988410;28;20050;-69
2023/08/07 10:31:41;;;;;;;3.63;1.38;;;;;;;22.08;100.00;100821.13;4991159;28;20605;-69
2023/08/07 10:34:08;;;;;;;9.77;1.90;;;;;;;21.77;100.00;100820.19;4974736;28;20047;-69
2023/08/07 10:36:38;;;;;;;4.20;1.40;;;;;;;21.50;100.00;100821.53;4991230;28;20461;-69
2023/08/07 10:39:07;;;;;;;4.45;1.40;;;;;;;21.64;100.00;100808.84;4992215;28;20054;-69
2023/08/07 10:41:44;;;;;;;5.43;1.60;;;;;;;21.34;100.00;100827.22;4979024;28;20428;-69
2023/08/07 10:44:33;;;;;;;5.63;1.52;;;;;;;21.38;100.00;100822.50;4983048;28;20089;-69
2023/08/07 10:47:01;;;;;;;4.63;1.23;;;;;;;20.93;100.00;100802.16;4992905;28;20161;-69
2023/08/07 10:49:40;;;;;;;4.55;1.25;;;;;;;20.80;100.00;100825.38;4984036;28;20080;-69
2023/08/07 10:52:14;;;;;;;3.15;1.10;;;;;;;20.91;100.00;100825.38;4990996;28;20058;-69
2023/08/07 10:54:47;;;;;;;3.42;1.08;;;;;;;20.63;100.00;100830.22;4991984;28;20054;-69
2023/08/07 10:57:16;;;;;;;3.58;1.23;;;;;;;20.52;100.00;100831.97;4976380;28;20046;-69
2023/08/07 10:59:59;;;;;;;3.78;1.13;;;;;;;20.59;100.00;100827.88;4991648;28;20046;-69
2023/08/07 11:02:29;;;;;;;3.67;1.23;;;;;;;20.65;100.00;100822.13;4981295;28;20043;-69
2023/08/07 11:04:56;;;;;;;4.05;1.20;;;;;;;20.45;100.00;100824.50;4991959;28;20054;-69
2023/08/07 11:07:28;;;;;;;3.22;1.20;;;;;;;20.45;100.00;100815.66;4991847;28;20054;-69
2023/08/07 11:09:56;;;;;;;4.97;1.38;;;;;;;20.00;100.00;100820.91;4988732;28;20050;-69
2023/08/07 11:12:27;;;;;;;3.42;1.23;;;;;;;20.05;100.00;100822.25;4990526;28;20380;-69
2023/08/07 11:14:58;;;;;;;4.97;1.30;;;;;;;19.92;100.00;100809.03;4992129;28;20417;-69
2023/08/07 11:17:28;;;;;;;3.28;1.20;;;;;;;20.00;100.00;100808.44;4975215;28;20055;-69
2023/08/07 11:19:57;;;;;;;3.72;1.30;;;;;;;20.29;100.00;100821.31;4973945;28;20047;-69